createdAt,value
2017-09-14T00:01:51.934Z,995.3
2017-09-14T00:06:57.328Z,995.2
2017-09-14T00:12:03.059Z,995.3
2017-09-14T00:17:08.451Z,995.3
2017-09-14T00:22:13.844Z,995.3
2017-09-14T00:27:18.567Z,995.4
2017-09-14T00:32:23.631Z,995.4
2017-09-14T00:37:28.358Z,995.4
2017-09-14T00:42:34.086Z,995.3
2017-09-14T00:47:39.146Z,995.3
2017-09-14T00:52:44.880Z,995.3
2017-09-14T00:57:49.938Z,995.4
2017-09-14T01:02:55.334Z,995.4
2017-09-14T01:08:00.392Z,995.4
2017-09-14T01:13:05.789Z,995.4
2017-09-14T01:18:10.849Z,995.5
2017-09-14T01:23:16.245Z,995.4
2017-09-14T01:28:21.639Z,995.4
2017-09-14T01:33:27.034Z,995.5
2017-09-14T01:38:32.095Z,995.4
2017-09-14T01:43:37.162Z,995.5
2017-09-14T01:48:42.551Z,995.4
2017-09-14T01:53:47.276Z,995.3
2017-09-14T01:58:52.668Z,995.4
2017-09-14T02:03:58.065Z,995.3
2017-09-14T02:09:03.790Z,995.3
2017-09-14T02:14:08.845Z,995.2
2017-09-14T02:19:14.245Z,995.3
2017-09-14T02:24:18.973Z,995.3
2017-09-14T02:29:23.366Z,995.2
2017-09-14T02:34:28.091Z,995.3
2017-09-14T02:39:32.813Z,995.3
2017-09-14T02:44:38.548Z,995.3
2017-09-14T02:49:44.611Z,995.3
2017-09-14T02:54:50.341Z,995.3
2017-09-14T02:59:55.067Z,995.3
2017-09-14T03:05:00.127Z,995.3
2017-09-14T03:10:04.851Z,995.3
2017-09-14T03:15:10.244Z,995.3
2017-09-14T03:20:15.973Z,995.3
2017-09-14T03:25:21.036Z,995.3
2017-09-14T03:30:26.433Z,995.4
2017-09-14T03:35:30.821Z,995.3
2017-09-14T03:40:35.547Z,995.3
2017-09-14T03:45:40.942Z,995.4
2017-09-14T03:50:46.335Z,995.3
2017-09-14T03:55:51.729Z,995.4
2017-09-14T04:00:56.787Z,995.4
2017-09-14T04:06:01.843Z,995.3
2017-09-14T04:11:07.567Z,995.4
2017-09-14T04:16:13.628Z,995.3
2017-09-14T04:21:19.690Z,995.3
2017-09-14T04:26:24.749Z,995.4
2017-09-14T04:31:29.810Z,995.4
2017-09-14T04:36:34.867Z,995.4
2017-09-14T04:41:40.306Z,995.4
2017-09-14T04:46:46.372Z,995.4
2017-09-14T04:51:51.770Z,995.4
2017-09-14T04:56:57.541Z,995.4
2017-09-14T05:02:02.943Z,995.4
2017-09-14T05:07:08.878Z,995.4
2017-09-14T05:12:13.953Z,995.5
2017-09-14T05:17:19.692Z,995.5
2017-09-14T05:22:25.428Z,995.5
2017-09-14T05:27:30.820Z,995.5
2017-09-14T05:32:36.221Z,995.4
2017-09-14T05:37:40.951Z,995.5
2017-09-14T05:42:47.024Z,995.5
2017-09-14T05:47:52.418Z,995.4
2017-09-14T05:52:57.479Z,995.3
2017-09-14T05:58:02.207Z,995.4
2017-09-14T06:03:07.607Z,995.4
2017-09-14T06:08:13.341Z,995.4
2017-09-14T06:13:19.403Z,995.4
2017-09-14T06:18:24.801Z,995.4
2017-09-14T06:23:29.868Z,995.4
2017-09-14T06:28:34.595Z,995.4
2017-09-14T06:33:40.004Z,995.3
2017-09-14T06:38:45.401Z,995.2
2017-09-14T06:43:50.472Z,995.3
2017-09-14T06:48:55.210Z,995.3
2017-09-14T06:54:00.275Z,995.2
2017-09-14T06:59:05.342Z,995.2
2017-09-14T07:04:11.078Z,995.4
2017-09-14T07:09:16.150Z,995.3
2017-09-14T07:14:21.552Z,995.4
2017-09-14T07:19:26.621Z,995.4
2017-09-14T07:24:31.698Z,995.4
2017-09-14T07:29:37.765Z,995.5
2017-09-14T07:34:42.493Z,995.7
2017-09-14T07:39:46.559Z,995.7
2017-09-14T07:44:51.962Z,995.8
2017-09-14T07:49:57.697Z,995.9
2017-09-14T07:55:03.097Z,995.9
2017-09-14T08:00:08.837Z,996
2017-09-14T08:05:13.911Z,996
2017-09-14T08:10:18.978Z,996
2017-09-14T08:15:24.724Z,996.1
2017-09-14T08:20:29.128Z,996.2
2017-09-14T08:25:34.547Z,996.2
2017-09-14T08:30:39.624Z,996.2
2017-09-14T08:35:45.034Z,996.3
2017-09-14T08:40:50.443Z,996.2
2017-09-14T08:45:55.853Z,996.3
2017-09-14T08:51:00.925Z,996.4
2017-09-14T08:56:06.670Z,996.3
2017-09-14T09:01:11.413Z,996.3
2017-09-14T09:06:16.154Z,996.4
2017-09-14T09:11:21.221Z,996.3
2017-09-14T09:16:26.629Z,996.3
2017-09-14T09:21:32.039Z,996.2
2017-09-14T09:26:37.111Z,996.2
2017-09-14T09:31:42.855Z,996.2
2017-09-14T09:36:48.598Z,996.3
2017-09-14T09:41:53.677Z,996.2
2017-09-14T09:46:58.750Z,996.3
2017-09-14T09:52:03.487Z,996.2
2017-09-14T09:57:08.896Z,996.2
2017-09-14T10:02:13.973Z,996.2
2017-09-14T10:07:19.715Z,996.3
2017-09-14T10:12:24.796Z,996.3
2017-09-14T10:17:30.545Z,996.4
2017-09-14T10:22:35.962Z,996.4
2017-09-14T10:27:41.046Z,996.6
2017-09-14T10:32:46.124Z,996.5
2017-09-14T10:37:51.199Z,996.6
2017-09-14T10:42:55.602Z,996.6
2017-09-14T10:48:01.004Z,996.7
2017-09-14T10:53:05.741Z,996.8
2017-09-14T10:58:11.481Z,996.8
2017-09-14T11:03:16.547Z,996.7
2017-09-14T11:08:21.284Z,996.8
2017-09-14T11:13:27.027Z,996.8
2017-09-14T11:18:32.787Z,996.8
2017-09-14T11:23:38.192Z,996.8
2017-09-14T11:28:42.923Z,996.9
2017-09-14T11:33:48.329Z,996.8
2017-09-14T11:38:53.405Z,996.9
2017-09-14T11:43:58.142Z,996.8
2017-09-14T11:49:03.223Z,997
2017-09-14T11:54:08.292Z,996.9
2017-09-14T11:59:13.362Z,996.9
2017-09-14T12:04:18.769Z,997
2017-09-14T12:09:23.838Z,997
2017-09-14T12:14:28.576Z,997
2017-09-14T12:19:33.977Z,997
2017-09-14T12:24:39.724Z,997
2017-09-14T12:29:44.790Z,997
2017-09-14T12:34:49.892Z,997
2017-09-14T12:39:54.956Z,997.1
2017-09-14T12:44:59.354Z,997.1
2017-09-14T12:50:05.094Z,997.1
2017-09-14T12:55:09.827Z,997.1
2017-09-14T13:00:15.227Z,997.2
2017-09-14T13:05:20.298Z,997.2
2017-09-14T13:10:25.401Z,997.3
2017-09-14T13:15:30.803Z,997.3
2017-09-14T13:20:35.867Z,997.3
2017-09-14T13:25:41.609Z,997.3
2017-09-14T13:30:46.676Z,997.4
2017-09-14T13:35:52.743Z,997.5
2017-09-14T13:40:57.811Z,997.6
2017-09-14T13:46:03.543Z,997.6
2017-09-14T13:51:08.945Z,997.7
2017-09-14T13:56:14.347Z,997.7
2017-09-14T14:01:19.752Z,997.8
2017-09-14T14:06:24.818Z,997.9
2017-09-14T14:11:30.225Z,997.9
2017-09-14T14:16:35.968Z,997.9
2017-09-14T14:21:41.044Z,998
2017-09-14T14:26:46.440Z,997.9
2017-09-14T14:31:51.843Z,998
2017-09-14T14:36:56.917Z,998.1
2017-09-14T14:42:02.320Z,998.2
2017-09-14T14:47:07.393Z,998.3
2017-09-14T14:52:12.456Z,998.4
2017-09-14T14:57:18.191Z,998.4
2017-09-14T15:02:23.928Z,998.5
2017-09-14T15:07:29.335Z,998.4
2017-09-14T15:12:34.399Z,998.5
2017-09-14T15:17:40.139Z,998.4
2017-09-14T15:22:46.208Z,998.5
2017-09-14T15:27:51.271Z,998.5
2017-09-14T15:32:56.003Z,998.5
2017-09-14T15:38:01.748Z,998.6
2017-09-14T15:43:07.153Z,998.6
2017-09-14T15:48:12.553Z,998.6
2017-09-14T15:53:17.281Z,998.7
2017-09-14T15:58:22.349Z,998.6
2017-09-14T16:03:28.084Z,998.6
2017-09-14T16:08:33.905Z,998.6
2017-09-14T16:13:38.915Z,998.6
2017-09-14T16:18:44.320Z,998.7
2017-09-14T16:23:49.718Z,998.7
2017-09-14T16:28:55.144Z,998.7
2017-09-14T16:33:59.961Z,998.8
2017-09-14T16:39:05.478Z,998.9
2017-09-14T16:44:11.256Z,998.8
2017-09-14T16:49:16.694Z,998.9
2017-09-14T16:54:21.797Z,998.9
2017-09-14T16:59:27.196Z,999
2017-09-14T17:04:32.619Z,999
2017-09-14T17:09:38.022Z,999
2017-09-14T17:14:43.421Z,999.1
2017-09-14T17:19:48.821Z,999.1
2017-09-14T17:24:54.248Z,999.2
2017-09-14T17:29:58.973Z,999.3
2017-09-14T17:35:03.756Z,999.3
2017-09-14T17:40:08.816Z,999.4
2017-09-14T17:45:13.882Z,999.5
2017-09-14T17:50:18.946Z,999.6
2017-09-14T17:55:24.008Z,999.6
2017-09-14T18:00:29.073Z,999.7
2017-09-14T18:05:34.808Z,999.8
2017-09-14T18:10:39.878Z,999.8
2017-09-14T18:15:44.607Z,999.9
2017-09-14T18:20:50.339Z,1000
2017-09-14T18:25:56.408Z,1000.3
2017-09-14T18:31:01.802Z,1000.4
2017-09-14T18:36:06.526Z,1000.5
2017-09-14T18:41:11.597Z,1000.5
2017-09-14T18:46:16.662Z,1000.6
2017-09-14T18:51:21.737Z,1000.6
2017-09-14T18:56:27.138Z,1000.7
2017-09-14T19:01:33.209Z,1000.7
2017-09-14T19:06:38.612Z,1000.8
2017-09-14T19:11:42.675Z,1000.8
2017-09-14T19:16:47.740Z,1000.9
2017-09-14T19:21:53.148Z,1000.9
2017-09-14T19:26:58.555Z,1001
2017-09-14T19:32:03.636Z,1001
2017-09-14T19:37:09.079Z,1001
2017-09-14T19:42:13.808Z,1001.1
2017-09-14T19:47:18.880Z,1001.2
2017-09-14T19:52:23.617Z,1001.3
2017-09-14T19:57:28.685Z,1001.4
2017-09-14T20:02:34.776Z,1001.3
2017-09-14T20:07:40.522Z,1001.5
2017-09-14T20:12:44.932Z,1001.5
2017-09-14T20:17:50.349Z,1001.5
2017-09-14T20:22:55.467Z,1001.6
2017-09-14T20:28:00.872Z,1001.7
2017-09-14T20:33:06.276Z,1001.8
2017-09-14T20:38:11.680Z,1001.9
2017-09-14T20:43:16.424Z,1002
2017-09-14T20:48:21.834Z,1002
2017-09-14T20:53:26.897Z,1002.1
2017-09-14T20:58:32.689Z,1002.1
2017-09-14T21:03:37.753Z,1002.3
2017-09-14T21:08:43.162Z,1002.4
2017-09-14T21:13:48.565Z,1002.5
2017-09-14T21:18:54.296Z,1002.6
2017-09-14T21:23:59.692Z,1002.8
2017-09-14T21:29:04.419Z,1002.9
2017-09-14T21:34:09.478Z,1003
2017-09-14T21:39:14.538Z,1003.1
2017-09-14T21:44:19.603Z,1003.1
2017-09-14T21:49:24.331Z,1003.3
2017-09-14T21:54:29.728Z,1003.3
2017-09-14T21:59:35.126Z,1003.4
2017-09-14T22:04:40.183Z,1003.6
2017-09-14T22:09:45.579Z,1003.7
2017-09-14T22:14:51.307Z,1003.8
2017-09-14T22:19:56.701Z,1003.8
2017-09-14T22:25:01.096Z,1003.9
2017-09-14T22:30:06.158Z,1004
2017-09-14T22:35:10.882Z,1004.1
2017-09-14T22:40:16.280Z,1004.2
2017-09-14T22:45:22.016Z,1004.3
2017-09-14T22:50:27.083Z,1004.4
2017-09-14T22:55:32.148Z,1004.4
2017-09-14T23:00:37.206Z,1004.4
2017-09-14T23:05:42.611Z,1004.5
2017-09-14T23:10:48.347Z,1004.6
2017-09-14T23:15:53.740Z,1004.7
2017-09-14T23:20:58.798Z,1004.7
2017-09-14T23:26:03.858Z,1004.8
2017-09-14T23:31:08.919Z,1004.9
2017-09-14T23:36:14.316Z,1005
2017-09-14T23:41:19.714Z,1005.2
2017-09-14T23:46:24.777Z,1005.2
2017-09-14T23:51:30.175Z,1005.1
2017-09-14T23:56:35.239Z,1005.2
